Time;durP1;ratioP1;P1;durP2;ratioP2;P2;SDS_P1;SDS_P2;PMS_P1;PMS_P2;Temp;Humidity;BMP_temperature;BMP_pressure;BME280_temperature;BME280_humidity;BME280_pressure;Samples;Min_cycle;Max_cycle;Signal;HPM_P1;HPM_P2
2021/08/12 00:01:23;;;;;;;11.20;8.57;;;;;;;23.88;59.61;100136.88;5109652;28;20395;-23
2021/08/12 00:03:49;;;;;;;10.88;8.02;;;;;;;24.09;59.05;100139.97;5109770;28;20038;-22
2021/08/12 00:06:14;;;;;;;9.90;8.02;;;;;;;23.60;60.86;100145.06;5109290;28;20020;-23
2021/08/12 00:08:40;;;;;;;10.30;8.65;;;;;;;23.38;61.45;100142.25;5110092;28;20035;-22
2021/08/12 00:11:05;;;;;;;10.05;8.40;;;;;;;23.10;62.48;100142.25;5109491;28;20598;-23
2021/08/12 00:13:31;;;;;;;10.18;8.40;;;;;;;22.95;63.89;100156.91;5109714;28;20040;-22
2021/08/12 00:15:56;;;;;;;10.45;9.35;;;;;;;22.61;64.77;100144.41;5109553;28;20819;-24
2021/08/12 00:18:22;;;;;;;11.35;8.88;;;;;;;22.78;63.99;100154.75;5109015;28;20024;-23
2021/08/12 00:20:47;;;;;;;11.57;9.20;;;;;;;23.25;62.19;100166.44;5109214;28;20089;-23
2021/08/12 00:23:13;;;;;;;11.15;9.85;;;;;;;23.66;60.75;100152.03;5109881;28;20038;-23
2021/08/12 00:25:38;;;;;;;12.82;10.25;;;;;;;24.01;59.47;100157.84;5109438;28;20020;-23
2021/08/12 00:28:04;;;;;;;10.65;9.60;;;;;;;24.20;58.86;100152.22;5108944;28;20066;-22
2021/08/12 00:30:29;;;;;;;10.95;9.85;;;;;;;24.50;57.80;100166.28;5109089;28;20028;-23
2021/08/12 00:32:55;;;;;;;12.35;9.90;;;;;;;24.21;58.97;100163.91;5109231;28;20475;-23
2021/08/12 00:35:20;;;;;;;10.93;9.82;;;;;;;23.97;59.16;100147.88;5108835;28;20028;-23
2021/08/12 00:37:45;;;;;;;13.23;10.70;;;;;;;23.93;59.23;100163.22;5109261;28;20038;-23
2021/08/12 00:40:11;;;;;;;11.82;10.52;;;;;;;23.91;59.23;100166.25;5108886;28;20082;-23
2021/08/12 00:42:37;;;;;;;14.73;10.38;;;;;;;23.96;59.40;100157.94;5108882;28;20034;-23
2021/08/12 00:45:03;;;;;;;12.48;10.90;;;;;;;23.75;59.72;100152.09;5108724;28;20020;-23
2021/08/12 00:47:29;;;;;;;12.77;10.93;;;;;;;23.40;61.52;100172.72;5108881;28;20089;-23
2021/08/12 00:49:55;;;;;;;13.55;11.32;;;;;;;23.15;62.44;100172.09;5107639;28;20066;-23
2021/08/12 00:52:21;;;;;;;12.43;10.43;;;;;;;22.80;63.24;100160.72;5108814;28;20096;-22
2021/08/12 00:54:46;;;;;;;13.35;11.23;;;;;;;22.84;63.25;100166.31;5073718;28;20065;-23
2021/08/12 00:57:12;;;;;;;14.00;10.73;;;;;;;22.48;64.39;100158.78;5108392;28;20116;-23
2021/08/12 00:59:39;;;;;;;13.82;10.80;;;;;;;22.68;63.76;100168.53;5090402;28;20118;-23
2021/08/12 01:02:13;;;;;;;53.90;38.90;;;;;;;23.15;56.64;100172.09;5108716;28;20463;-23
2021/08/12 01:04:40;;;;;;;13.93;12.15;;;;;;;23.51;58.32;100156.97;5108345;28;20016;-23
2021/08/12 01:07:10;;;;;;;25.48;20.30;;;;;;;23.99;51.04;100162.78;5108556;28;20031;-23
2021/08/12 01:10:01;;;;;;;31.92;22.45;;;;;;;24.35;51.87;100169.34;5090534;28;20530;-22
2021/08/12 01:12:35;;;;;;;54.75;40.17;;;;;;;24.41;52.50;100155.25;5090090;28;20058;-22
2021/08/12 01:15:05;;;;;;;20.80;18.15;;;;;;;24.47;51.57;100162.19;5108363;28;20028;-23
2021/08/12 01:17:39;;;;;;;11.20;9.68;;;;;;;24.03;57.97;100163.00;5073534;28;20038;-23
2021/08/12 01:20:25;;;;;;;12.45;10.20;;;;;;;23.80;58.75;100168.38;5108084;28;20059;-23
2021/08/12 01:22:51;;;;;;;12.33;10.60;;;;;;;23.37;59.85;100168.66;5108297;28;20035;-23
2021/08/12 01:25:23;;;;;;;23.27;10.77;;;;;;;23.36;59.28;100172.50;5107905;28;20035;-23
2021/08/12 01:27:50;;;;;;;14.18;11.48;;;;;;;23.46;58.20;100171.50;5090073;28;20503;-22
2021/08/12 01:30:17;;;;;;;13.55;11.38;;;;;;;23.62;58.37;100166.53;5073006;28;20055;-22
2021/08/12 01:32:56;;;;;;;13.52;10.27;;;;;;;23.47;58.35;100173.88;5089817;28;20034;-23
2021/08/12 01:35:21;;;;;;;11.05;9.70;;;;;;;23.62;59.11;100153.75;5091098;28;20035;-23
2021/08/12 01:38:13;;;;;;;13.23;10.00;;;;;;;23.57;58.98;100151.13;5073032;28;20106;-23
2021/08/12 01:40:39;;;;;;;11.68;10.30;;;;;;;23.99;57.54;100172.88;5076289;28;20098;-22
2021/08/12 01:43:10;;;;;;;10.95;9.80;;;;;;;23.95;55.36;100164.50;5089845;28;20758;-23
2021/08/12 01:45:35;;;;;;;11.25;9.55;;;;;;;24.02;55.66;100158.63;5089747;28;20035;-23
2021/08/12 01:48:01;;;;;;;11.00;9.70;;;;;;;24.29;55.91;100154.22;5107956;28;20032;-23
2021/08/12 01:50:26;;;;;;;11.77;9.35;;;;;;;24.39;55.90;100138.41;5108332;28;20062;-23
2021/08/12 01:52:52;;;;;;;10.85;9.70;;;;;;;24.35;55.53;100152.97;5072942;28;20407;-23
2021/08/12 01:55:20;;;;;;;10.50;9.45;;;;;;;24.47;52.58;100145.06;5089542;28;20118;-23
2021/08/12 01:57:45;;;;;;;11.93;9.15;;;;;;;25.02;51.13;100161.13;5089246;28;20132;-23
2021/08/12 02:00:12;;;;;;;10.75;8.73;;;;;;;24.90;52.17;100154.66;5106869;28;20536;-22
2021/08/12 02:02:37;;;;;;;11.65;9.07;;;;;;;24.84;51.36;100149.31;5107404;28;20034;-22
2021/08/12 02:05:03;;;;;;;11.65;9.48;;;;;;;24.97;52.67;100163.22;5072386;28;20027;-23
2021/08/12 02:07:29;;;;;;;10.45;9.30;;;;;;;24.96;51.81;100162.38;5072817;28;20027;-23
2021/08/12 02:09:55;;;;;;;12.35;8.73;;;;;;;24.76;52.29;100152.00;5089562;28;20019;-23
2021/08/12 02:12:21;;;;;;;11.65;9.20;;;;;;;24.70;52.92;100161.44;5107263;28;20503;-23
2021/08/12 02:14:46;;;;;;;11.00;9.70;;;;;;;24.74;55.03;100165.94;5107474;28;20034;-23
2021/08/12 02:17:12;;;;;;;10.80;9.52;;;;;;;24.86;52.99;100157.19;5107349;28;20028;-23
2021/08/12 02:19:37;;;;;;;10.63;9.50;;;;;;;24.63;54.08;100154.50;5107542;28;20023;-23
2021/08/12 02:22:24;;;;;;;13.43;9.15;;;;;;;24.76;52.51;100157.47;5089274;28;20031;-23
2021/08/12 02:25:11;;;;;;;10.48;9.27;;;;;;;24.72;52.97;100151.81;5107465;28;20106;-23
2021/08/12 02:27:42;;;;;;;13.18;10.20;;;;;;;24.77;53.13;100145.44;5107359;28;20536;-22
2021/08/12 02:30:09;;;;;;;20.23;10.27;;;;;;;24.92;53.22;100139.56;5072301;28;20031;-23
2021/08/12 02:32:34;;;;;;;11.98;10.18;;;;;;;25.19;52.04;100165.06;5089330;28;20031;-22
2021/08/12 02:35:00;;;;;;;12.77;9.63;;;;;;;25.29;52.01;100153.88;5089172;28;20035;-22
2021/08/12 02:37:25;;;;;;;13.55;9.85;;;;;;;24.97;52.98;100141.38;5089277;28;20885;-23
2021/08/12 02:39:51;;;;;;;13.85;10.38;;;;;;;24.69;54.56;100149.72;5071984;28;20023;-23
2021/08/12 02:42:16;;;;;;;11.50;10.10;;;;;;;24.61;54.95;100148.53;5089168;28;20040;-23
2021/08/12 02:44:42;;;;;;;11.70;10.50;;;;;;;24.27;55.93;100151.78;5107511;28;20035;-24
2021/08/12 02:47:08;;;;;;;16.50;10.73;;;;;;;24.56;54.79;100150.59;5107331;28;20138;-23
2021/08/12 02:49:41;;;;;;;16.08;10.63;;;;;;;24.54;54.48;100152.81;5089013;28;20031;-23
2021/08/12 02:52:07;;;;;;;17.27;10.65;;;;;;;24.40;55.44;100140.03;5088906;28;20457;-23
2021/08/12 02:54:32;;;;;;;16.17;11.30;;;;;;;24.69;54.80;100157.91;5088847;28;20083;-23
2021/08/12 02:56:58;;;;;;;14.30;10.30;;;;;;;24.64;53.50;100160.75;5088903;28;20058;-23
2021/08/12 02:59:24;;;;;;;13.60;11.38;;;;;;;24.58;54.07;100148.34;5072285;28;20043;-23
2021/08/12 03:01:49;;;;;;;13.98;11.90;;;;;;;24.75;54.12;100166.78;5107144;28;20035;-23
2021/08/12 03:04:20;;;;;;;13.23;9.75;;;;;;;24.56;54.06;100158.75;5088634;28;20081;-23
2021/08/12 03:06:46;;;;;;;105.55;18.42;;;;;;;24.71;55.22;100166.59;5089578;28;20028;-22
2021/08/12 03:09:12;;;;;;;17.33;11.30;;;;;;;24.32;56.22;100176.22;5107280;28;20800;-23
2021/08/12 03:11:37;;;;;;;12.75;11.43;;;;;;;24.39;55.34;100182.03;5072005;28;20039;-23
2021/08/12 03:14:03;;;;;;;13.15;11.00;;;;;;;24.30;55.58;100164.81;5074785;28;20024;-22
2021/08/12 03:16:28;;;;;;;13.57;10.82;;;;;;;24.32;55.50;100164.50;5092606;28;20030;-23
2021/08/12 03:18:54;;;;;;;13.38;11.07;;;;;;;24.17;56.25;100168.38;5092140;28;20505;-23
2021/08/12 03:21:19;;;;;;;15.98;11.00;;;;;;;24.17;55.65;100157.47;5110492;28;20044;-23
2021/08/12 03:23:45;;;;;;;11.25;9.82;;;;;;;23.98;56.25;100174.78;5110505;28;20034;-23
2021/08/12 03:26:10;;;;;;;17.13;11.70;;;;;;;24.13;55.94;100172.81;5110061;28;20027;-22
2021/08/12 03:28:36;;;;;;;14.40;11.07;;;;;;;24.09;57.13;100171.84;5110376;28;20537;-23
2021/08/12 03:31:02;;;;;;;23.13;12.48;;;;;;;24.04;56.41;100181.72;5110378;28;20415;-23
2021/08/12 03:33:28;;;;;;;17.60;12.10;;;;;;;24.12;56.40;100171.22;5110343;28;20038;-23
2021/08/12 03:35:53;;;;;;;13.43;10.48;;;;;;;24.30;55.69;100181.16;5109774;28;20051;-22
2021/08/12 03:38:20;;;;;;;15.25;11.57;;;;;;;24.33;55.70;100177.81;5110077;28;20024;-22
2021/08/12 03:40:49;;;;;;;13.90;12.17;;;;;;;24.33;56.01;100183.25;5110014;28;20044;-23
2021/08/12 03:43:15;;;;;;;12.50;10.25;;;;;;;24.41;56.23;100196.16;5109138;28;20269;-22
2021/08/12 03:45:41;;;;;;;32.05;13.20;;;;;;;24.42;54.50;100184.16;5110103;28;20818;-22
2021/08/12 03:48:06;;;;;;;13.55;10.20;;;;;;;24.38;55.53;100194.06;5110047;28;20074;-23
2021/08/12 03:50:32;;;;;;;12.75;11.40;;;;;;;24.30;55.87;100197.50;5110188;28;20118;-22
2021/08/12 03:52:57;;;;;;;13.10;11.60;;;;;;;24.11;57.00;100202.28;5110261;28;20063;-23
2021/08/12 03:55:23;;;;;;;10.55;9.40;;;;;;;24.07;56.39;100202.13;5109864;28;20092;-23
2021/08/12 03:57:48;;;;;;;14.18;11.20;;;;;;;24.19;56.34;100209.75;5109653;28;20086;-22
2021/08/12 04:00:14;;;;;;;40.08;12.98;;;;;;;24.04;56.92;100210.91;5109389;28;20028;-23
2021/08/12 04:02:40;;;;;;;17.25;12.27;;;;;;;24.05;56.20;100215.25;5109688;28;20034;-23
2021/08/12 04:05:06;;;;;;;19.17;11.63;;;;;;;24.34;55.87;100201.25;5109553;28;20024;-23
2021/08/12 04:07:31;;;;;;;16.58;12.32;;;;;;;24.08;57.59;100211.09;5109565;28;20074;-22
2021/08/12 04:09:57;;;;;;;17.40;13.07;;;;;;;23.59;59.95;100208.78;5109898;28;20419;-23
2021/08/12 04:12:22;;;;;;;18.30;13.35;;;;;;;23.51;59.82;100211.41;5109383;28;20415;-23
2021/08/12 04:14:48;;;;;;;16.48;14.18;;;;;;;23.76;57.82;100208.19;5109402;28;20031;-23
2021/08/12 04:17:13;;;;;;;17.25;12.80;;;;;;;24.36;56.45;100209.91;5109268;28;20035;-23
2021/08/12 04:19:39;;;;;;;30.90;14.65;;;;;;;24.11;57.43;100219.47;5109724;28;20030;-23
2021/08/12 04:22:04;;;;;;;20.95;14.07;;;;;;;24.02;56.96;100210.41;5109228;28;20337;-22
2021/08/12 04:24:30;;;;;;;18.05;13.60;;;;;;;24.31;55.90;100217.41;5108858;28;20030;-22
2021/08/12 04:26:55;;;;;;;20.75;13.70;;;;;;;24.30;56.08;100222.03;5109455;28;20043;-22
2021/08/12 04:29:21;;;;;;;15.88;12.90;;;;;;;24.14;56.35;100223.50;5109486;28;20407;-23
2021/08/12 04:31:46;;;;;;;17.58;14.43;;;;;;;24.10;57.97;100223.28;5109227;28;20051;-23
2021/08/12 04:34:12;;;;;;;21.10;14.13;;;;;;;24.33;56.98;100207.78;5109088;28;20399;-23
2021/08/12 04:36:38;;;;;;;15.98;13.43;;;;;;;24.08;58.28;100213.81;5109114;28;20060;-23
2021/08/12 04:39:04;;;;;;;20.35;14.35;;;;;;;24.13;57.54;100217.25;5109025;28;20024;-22
2021/08/12 04:41:29;;;;;;;16.10;14.48;;;;;;;24.50;57.61;100219.97;5109015;28;20032;-23
2021/08/12 04:43:55;;;;;;;27.13;14.55;;;;;;;24.91;55.39;100232.63;5109084;28;20023;-23
2021/08/12 04:46:20;;;;;;;15.68;13.90;;;;;;;24.93;55.63;100224.94;5108511;28;20076;-23
2021/08/12 04:48:46;;;;;;;15.88;13.02;;;;;;;24.67;56.93;100231.84;5109110;28;20419;-23
2021/08/12 04:51:12;;;;;;;15.43;13.68;;;;;;;24.65;56.54;100233.25;5108805;28;20065;-23
2021/08/12 04:53:37;;;;;;;16.67;12.98;;;;;;;24.72;56.54;100230.91;5108476;28;20084;-22
2021/08/12 04:56:03;;;;;;;16.92;13.43;;;;;;;24.58;57.19;100233.69;5108465;28;20032;-23
2021/08/12 04:58:29;;;;;;;15.60;13.63;;;;;;;24.56;57.44;100230.47;5108788;28;20048;-22
2021/08/12 05:00:54;;;;;;;16.75;13.65;;;;;;;24.60;57.32;100236.09;5108362;28;20027;-23
2021/08/12 05:03:20;;;;;;;14.50;12.98;;;;;;;24.28;58.13;100240.63;5108892;28;20575;-23
2021/08/12 05:05:45;;;;;;;16.42;14.25;;;;;;;24.54;57.24;100238.16;5108845;28;20027;-22
2021/08/12 05:08:10;;;;;;;17.10;14.07;;;;;;;24.70;57.52;100241.31;5108292;28;20042;-23
2021/08/12 05:10:36;;;;;;;14.93;13.40;;;;;;;24.93;56.51;100246.75;5108595;28;20028;-22
2021/08/12 05:13:02;;;;;;;17.30;14.32;;;;;;;25.07;54.92;100244.81;5090342;28;20031;-23
2021/08/12 05:15:29;;;;;;;15.82;14.07;;;;;;;25.24;55.67;100249.56;5108207;28;20084;-23
2021/08/12 05:17:54;;;;;;;18.20;13.93;;;;;;;25.03;55.56;100243.81;5108434;28;20039;-23
2021/08/12 05:20:20;;;;;;;17.00;14.50;;;;;;;24.97;56.35;100258.69;5107888;28;20038;-23
2021/08/12 05:22:45;;;;;;;15.80;13.95;;;;;;;25.17;56.34;100255.44;5108210;28;20080;-23
2021/08/12 05:25:11;;;;;;;17.05;13.48;;;;;;;25.31;55.14;100249.13;5108057;28;20084;-23
2021/08/12 05:27:36;;;;;;;15.80;13.85;;;;;;;24.93;56.74;100265.84;5108014;28;20042;-23
2021/08/12 05:30:02;;;;;;;17.25;13.23;;;;;;;24.89;57.54;100262.13;5107862;28;20023;-22
2021/08/12 05:32:28;;;;;;;15.23;13.68;;;;;;;24.83;57.90;100262.28;5108205;28;20027;-22
2021/08/12 05:34:53;;;;;;;16.23;13.60;;;;;;;24.96;57.15;100265.25;5107789;28;20019;-23
2021/08/12 05:37:18;;;;;;;17.05;13.52;;;;;;;24.89;57.47;100265.69;5107613;28;20034;-23
2021/08/12 05:39:44;;;;;;;15.13;13.55;;;;;;;25.39;56.19;100278.38;5108088;28;20028;-23
2021/08/12 05:42:09;;;;;;;16.85;15.05;;;;;;;25.18;56.77;100275.34;5107715;28;20050;-22
2021/08/12 05:44:35;;;;;;;16.05;14.27;;;;;;;25.43;56.22;100280.16;5107938;28;20032;-23
2021/08/12 05:47:00;;;;;;;16.15;13.75;;;;;;;25.61;55.53;100270.13;5108135;28;20396;-22
2021/08/12 05:49:26;;;;;;;16.50;14.75;;;;;;;25.55;55.92;100274.13;5107818;28;20035;-22
2021/08/12 05:51:52;;;;;;;16.83;13.40;;;;;;;25.56;55.32;100267.56;5107522;28;20431;-23
2021/08/12 05:54:17;;;;;;;17.85;14.05;;;;;;;25.70;55.64;100277.56;5107545;28;20019;-22
2021/08/12 05:56:43;;;;;;;16.40;14.05;;;;;;;25.69;55.72;100281.44;5089561;28;20031;-23
2021/08/12 05:59:08;;;;;;;15.75;14.02;;;;;;;25.92;55.12;100277.50;5107437;28;20051;-23
2021/08/12 06:01:34;;;;;;;16.10;13.00;;;;;;;25.82;55.02;100286.75;5107741;28;20502;-23
2021/08/12 06:03:59;;;;;;;16.45;12.82;;;;;;;25.93;54.27;100275.56;5107905;28;20038;-23
2021/08/12 06:06:25;;;;;;;17.83;13.13;;;;;;;25.84;54.46;100283.72;5107180;28;20092;-23
2021/08/12 06:08:50;;;;;;;18.20;13.30;;;;;;;25.81;54.75;100274.25;5107673;28;20032;-23
2021/08/12 06:11:15;;;;;;;18.10;13.23;;;;;;;26.04;54.21;100283.16;5107605;28;20035;-23
2021/08/12 06:13:41;;;;;;;17.38;13.07;;;;;;;26.15;53.79;100285.59;5107434;28;20032;-22
2021/08/12 06:16:07;;;;;;;14.95;13.07;;;;;;;26.05;53.77;100278.50;5107324;28;20030;-23
2021/08/12 06:18:32;;;;;;;14.25;12.55;;;;;;;26.30;53.71;100281.63;5107641;28;20907;-23
2021/08/12 06:20:58;;;;;;;15.88;13.15;;;;;;;26.28;53.64;100276.47;5107234;28;20039;-23
2021/08/12 06:23:23;;;;;;;19.55;13.10;;;;;;;26.36;53.99;100286.63;5107317;28;20101;-23
2021/08/12 06:25:49;;;;;;;15.38;13.70;;;;;;;26.43;53.38;100276.00;5107214;28;20027;-23
2021/08/12 06:28:14;;;;;;;14.02;12.57;;;;;;;26.50;52.82;100288.41;5107134;28;20036;-23
2021/08/12 06:30:40;;;;;;;17.10;13.23;;;;;;;26.73;52.95;100278.94;5107379;28;20050;-23
2021/08/12 06:33:05;;;;;;;14.77;12.20;;;;;;;26.63;52.90;100279.28;5107400;28;20036;-23
2021/08/12 06:35:32;;;;;;;16.58;14.75;;;;;;;26.74;52.33;100290.69;5107106;28;20027;-23
2021/08/12 06:37:58;;;;;;;195.23;121.68;;;;;;;26.74;52.73;100291.50;5107199;28;20027;-23
2021/08/12 06:40:24;;;;;;;86.32;46.47;;;;;;;27.16;50.87;100283.56;5106983;28;20556;-22
2021/08/12 06:42:50;;;;;;;47.85;27.02;;;;;;;27.33;50.39;100285.47;5107576;28;20031;-23
2021/08/12 06:45:16;;;;;;;392.10;175.52;;;;;;;27.54;49.65;100288.31;5107239;28;20024;-23
2021/08/12 06:47:41;;;;;;;97.95;46.90;;;;;;;27.82;49.22;100298.84;5108460;28;20036;-23
2021/08/12 06:50:07;;;;;;;169.70;81.25;;;;;;;27.99;48.42;100287.84;5110845;28;20046;-23
2021/08/12 06:52:33;;;;;;;108.47;52.30;;;;;;;27.76;48.78;100292.75;5111109;28;20066;-23
2021/08/12 06:54:59;;;;;;;20.85;13.27;;;;;;;27.63;48.66;100278.13;5111381;28;20175;-23
2021/08/12 06:57:24;;;;;;;18.17;13.48;;;;;;;27.85;48.91;100276.28;5111144;28;20051;-23
2021/08/12 06:59:49;;;;;;;22.20;14.02;;;;;;;27.98;47.23;100279.94;5110875;28;20039;-23
2021/08/12 07:02:15;;;;;;;140.77;70.45;;;;;;;28.10;48.12;100281.97;5110770;28;20061;-22
2021/08/12 07:04:40;;;;;;;31.50;17.80;;;;;;;28.18;47.93;100276.44;5110678;28;20035;-23
2021/08/12 07:07:06;;;;;;;40.42;22.50;;;;;;;28.43;47.69;100290.31;5110950;28;20031;-22
2021/08/12 07:09:31;;;;;;;238.27;103.72;;;;;;;28.79;47.23;100281.50;5110896;28;20437;-22
2021/08/12 07:11:57;;;;;;;50.80;27.83;;;;;;;28.88;47.30;100283.34;5110772;28;20407;-23
2021/08/12 07:14:23;;;;;;;83.20;39.17;;;;;;;28.77;46.94;100272.78;5110482;28;20058;-23
2021/08/12 07:16:48;;;;;;;25.13;15.73;;;;;;;28.84;46.49;100284.00;5110866;28;20474;-22
2021/08/12 07:19:14;;;;;;;15.85;12.90;;;;;;;28.83;46.91;100271.44;5110389;28;20415;-23
2021/08/12 07:21:40;;;;;;;40.13;22.30;;;;;;;29.09;46.68;100291.53;5110768;28;20039;-23
2021/08/12 07:24:06;;;;;;;34.77;20.53;;;;;;;29.23;46.11;100292.06;5110637;28;20031;-22
2021/08/12 07:26:31;;;;;;;36.05;19.42;;;;;;;29.46;45.10;100286.97;5110269;28;20031;-22
2021/08/12 07:28:57;;;;;;;16.30;11.85;;;;;;;29.62;45.09;100284.34;5110284;28;20041;-23
2021/08/12 07:31:22;;;;;;;29.35;18.77;;;;;;;29.79;43.94;100288.84;5110678;28;20027;-23
2021/08/12 07:33:48;;;;;;;43.92;32.00;;;;;;;29.79;44.37;100280.59;5110314;28;20032;-23
2021/08/12 07:36:13;;;;;;;19.52;15.50;;;;;;;29.75;43.83;100288.75;5110313;28;20032;-23
2021/08/12 07:38:39;;;;;;;22.15;17.55;;;;;;;30.00;42.82;100291.50;5110417;28;20067;-22
2021/08/12 07:41:04;;;;;;;22.40;16.52;;;;;;;29.89;43.48;100280.16;5110055;28;20042;-23
2021/08/12 07:43:30;;;;;;;28.98;21.10;;;;;;;29.87;43.58;100293.44;5110136;28;20035;-23
2021/08/12 07:45:55;;;;;;;11.88;9.88;;;;;;;29.95;42.15;100287.00;5110117;28;20047;-22
2021/08/12 07:48:21;;;;;;;18.73;13.95;;;;;;;30.04;42.54;100290.47;5110004;28;20040;-23
2021/08/12 07:50:47;;;;;;;12.02;10.52;;;;;;;29.88;43.07;100294.25;5110103;28;20407;-23
2021/08/12 07:53:13;;;;;;;12.57;10.35;;;;;;;29.94;42.20;100288.19;5110097;28;20032;-22
2021/08/12 07:55:38;;;;;;;11.60;10.40;;;;;;;30.20;42.13;100292.53;5110257;28;20028;-22
2021/08/12 07:58:04;;;;;;;11.50;9.02;;;;;;;30.40;41.51;100277.84;5108396;28;20058;-23
2021/08/12 08:00:29;;;;;;;18.17;10.55;;;;;;;30.12;42.43;100276.91;5110143;28;20035;-22
2021/08/12 08:02:55;;;;;;;10.75;9.65;;;;;;;30.56;42.77;100293.59;5110009;28;20042;-22
2021/08/12 08:05:23;;;;;;;10.90;8.48;;;;;;;30.66;41.29;100284.06;5109650;28;20027;-22
2021/08/12 08:07:49;;;;;;;10.02;8.32;;;;;;;30.88;40.62;100289.06;5109870;28;20039;-22
2021/08/12 08:10:15;;;;;;;9.60;8.07;;;;;;;31.38;40.33;100289.56;5110126;28;20019;-22
2021/08/12 08:12:42;;;;;;;9.82;7.88;;;;;;;31.56;37.30;100299.13;5114232;28;20031;-22
2021/08/12 08:15:08;;;;;;;10.95;8.63;;;;;;;31.91;37.79;100279.09;5114617;28;20020;-23
2021/08/12 08:17:34;;;;;;;10.17;7.70;;;;;;;31.66;37.46;100289.53;5114609;28;20068;-23
2021/08/12 08:20:00;;;;;;;9.32;8.18;;;;;;;31.34;37.85;100285.94;5114515;28;20031;-22
2021/08/12 08:22:25;;;;;;;9.00;7.70;;;;;;;31.53;38.76;100283.31;5114525;28;20031;-22
2021/08/12 08:24:51;;;;;;;9.75;7.72;;;;;;;32.00;37.64;100292.75;5114332;28;20035;-22
2021/08/12 08:27:16;;;;;;;16.27;8.18;;;;;;;32.19;37.30;100294.72;5114330;28;20031;-23
2021/08/12 08:29:42;;;;;;;9.73;7.60;;;;;;;32.54;36.37;100288.38;5114600;28;20032;-22
2021/08/12 08:32:08;;;;;;;8.43;6.80;;;;;;;32.57;33.45;100284.91;5114227;28;20035;-22
2021/08/12 08:34:34;;;;;;;10.55;7.00;;;;;;;32.72;33.75;100288.78;5114093;28;20465;-23
2021/08/12 08:36:59;;;;;;;9.98;6.88;;;;;;;32.94;33.67;100273.44;5114244;28;20027;-23
2021/08/12 08:39:25;;;;;;;10.80;6.35;;;;;;;32.96;31.90;100282.94;5113902;28;20036;-23
2021/08/12 08:41:50;;;;;;;11.30;7.03;;;;;;;32.34;34.14;100280.06;5114113;28;20400;-23
2021/08/12 08:44:17;;;;;;;10.77;7.32;;;;;;;32.63;34.90;100278.75;5095528;28;20081;-23
2021/08/12 08:46:43;;;;;;;;;;;;;;;32.60;33.58;100279.47;5114120;28;20023;-23
2021/08/12 08:49:10;;;;;;;19.98;7.75;;;;;;;32.95;31.51;100280.53;5095772;28;19916;-23
2021/08/12 08:51:35;;;;;;;;;;;;;;;33.22;32.49;100279.53;5096502;28;20036;-23
2021/08/12 08:54:02;;;;;;;7.80;6.15;;;;;;;33.47;31.61;100270.84;5095746;28;19965;-23
2021/08/12 08:56:27;;;;;;;7.90;5.95;;;;;;;33.19;29.81;100274.72;5095681;28;20106;-22
2021/08/12 08:58:53;;;;;;;6.90;5.60;;;;;;;33.11;28.56;100270.22;5113654;28;20124;-23
2021/08/12 09:01:18;;;;;;;7.32;5.03;;;;;;;33.17;28.43;100268.75;5095550;28;20031;-23
2021/08/12 09:03:45;;;;;;;9.32;5.75;;;;;;;33.66;29.25;100275.53;5113489;28;20039;-23
2021/08/12 09:06:11;;;;;;;8.07;5.65;;;;;;;33.67;29.87;100265.25;5113101;28;20024;-22
2021/08/12 09:08:36;;;;;;;7.55;5.63;;;;;;;33.54;29.89;100273.72;5113494;28;20503;-23
2021/08/12 09:11:02;;;;;;;8.63;5.70;;;;;;;33.69;27.71;100268.47;5112746;28;20032;-23
2021/08/12 09:13:30;;;;;;;7.00;5.38;;;;;;;33.62;28.65;100258.88;5113487;28;20035;-22
2021/08/12 09:15:55;;;;;;;14.25;6.03;;;;;;;34.48;28.06;100261.28;5113448;28;20035;-22
2021/08/12 09:18:23;;;;;;;22.27;6.50;;;;;;;34.14;28.08;100264.81;5113341;28;20461;-23
2021/08/12 09:20:50;;;;;;;9.35;5.68;;;;;;;34.53;27.67;100258.19;5113352;28;20032;-23
2021/08/12 09:23:15;;;;;;;;;;;;;;;34.36;27.91;100260.34;5113550;28;20032;-23
2021/08/12 09:25:44;;;;;;;12.77;5.90;;;;;;;34.30;28.49;100248.00;5094081;28;20007;-23
2021/08/12 09:28:23;;;;;;;11.05;5.88;;;;;;;34.19;27.46;100258.94;5107830;28;20491;-22
2021/08/12 09:30:58;;;;;;;7.15;4.75;;;;;;;33.68;27.68;100261.34;5090182;28;20089;-23
2021/08/12 09:33:23;;;;;;;7.18;5.40;;;;;;;33.23;28.32;100259.00;5108025;28;20130;-22
2021/08/12 09:35:49;;;;;;;8.20;5.45;;;;;;;33.85;28.64;100266.34;5108280;28;20531;-22
2021/08/12 09:38:15;;;;;;;7.63;5.43;;;;;;;34.43;27.53;100262.44;5107816;28;20088;-22
2021/08/12 09:40:40;;;;;;;10.95;5.60;;;;;;;34.05;27.84;100266.22;5107941;28;20035;-22
2021/08/12 09:43:07;;;;;;;7.88;5.65;;;;;;;33.65;29.58;100256.53;5107618;28;20164;-23
2021/08/12 09:45:33;;;;;;;10.47;5.93;;;;;;;34.09;27.53;100259.56;5107895;28;20168;-22
2021/08/12 09:48:31;;;;;;;8.30;5.80;;;;;;;34.71;27.26;100252.88;5107718;28;20472;-22
2021/08/12 09:51:07;;;;;;;9.25;5.28;;;;;;;34.88;26.71;100260.59;5044557;28;20092;-23
2021/08/12 09:53:33;;;;;;;9.23;5.53;;;;;;;34.97;27.35;100251.97;5107861;28;20023;-23
2021/08/12 09:56:11;;;;;;;7.28;5.45;;;;;;;34.79;26.96;100258.13;5107795;28;20047;-22
2021/08/12 09:58:37;;;;;;;9.18;5.45;;;;;;;35.11;25.91;100256.88;5107696;28;20052;-23
2021/08/12 10:01:17;;;;;;;8.13;5.43;;;;;;;35.51;27.83;100264.38;5107622;28;20555;-23
2021/08/12 10:03:42;;;;;;;6.78;5.65;;;;;;;35.12;25.40;100259.22;5107682;28;20042;-22
2021/08/12 10:06:20;;;;;;;7.25;5.70;;;;;;;34.84;27.29;100256.19;5107368;28;20031;-22
2021/08/12 10:08:46;;;;;;;8.50;5.72;;;;;;;35.11;26.99;100257.66;5089949;28;20023;-23
2021/08/12 10:11:16;;;;;;;8.15;6.05;;;;;;;34.71;27.17;100250.91;5089443;28;20039;-23
2021/08/12 10:13:42;;;;;;;10.45;8.68;;;;;;;35.40;25.81;100242.09;5107339;28;20114;-23
2021/08/12 10:16:07;;;;;;;9.05;5.57;;;;;;;35.58;25.70;100247.78;5107181;28;20069;-23
2021/08/12 10:18:33;;;;;;;6.80;6.00;;;;;;;35.42;25.15;100234.19;5107200;28;20024;-23
2021/08/12 10:20:58;;;;;;;8.00;6.00;;;;;;;35.97;25.48;100241.72;5089542;28;20096;-23
2021/08/12 10:23:24;;;;;;;6.93;5.25;;;;;;;35.96;24.68;100231.81;5111885;28;20020;-23
2021/08/12 10:25:52;;;;;;;10.02;5.57;;;;;;;36.11;24.73;100237.44;5076477;28;20403;-23
2021/08/12 10:28:17;;;;;;;7.72;5.10;;;;;;;36.16;24.83;100228.75;5093279;28;20023;-22
2021/08/12 10:30:43;;;;;;;10.35;5.20;;;;;;;35.69;25.31;100224.91;5076610;28;20396;-23
2021/08/12 10:33:08;;;;;;;9.07;5.75;;;;;;;35.78;25.15;100228.16;5076488;28;20412;-23
2021/08/12 10:35:35;;;;;;;7.32;5.55;;;;;;;36.15;24.45;100219.63;5111608;28;20042;-22
2021/08/12 10:38:01;;;;;;;;;;;;;;;36.05;25.49;100236.22;5111912;28;20114;-22
2021/08/12 10:40:35;;;;;;;9.73;5.53;;;;;;;36.59;23.63;100226.13;5111674;28;20023;-22
2021/08/12 10:43:01;;;;;;;91.95;10.40;;;;;;;36.37;24.56;100231.63;5093103;28;20031;-23
2021/08/12 10:45:27;;;;;;;56.50;8.00;;;;;;;36.32;25.53;100222.88;5111363;28;20055;-22
2021/08/12 10:47:56;;;;;;;12.68;5.63;;;;;;;36.36;24.15;100238.38;5111280;28;20023;-22
2021/08/12 10:50:21;;;;;;;9.93;5.95;;;;;;;34.74;25.02;100244.63;5111086;28;20051;-22
2021/08/12 10:53:11;;;;;;;50.38;7.32;;;;;;;34.97;24.79;100238.13;5111078;28;20028;-23
2021/08/12 10:55:48;;;;;;;11.10;5.85;;;;;;;34.99;25.46;100238.53;5111106;28;20042;-22
2021/08/12 10:58:23;;;;;;;6.45;5.07;;;;;;;34.33;26.48;100246.47;5110504;28;20096;-23
2021/08/12 11:00:58;;;;;;;6.68;5.75;;;;;;;34.05;27.12;100224.72;5110886;28;20036;-22
2021/08/12 11:03:33;;;;;;;30.65;7.20;;;;;;;34.27;27.42;100245.22;5111489;28;20399;-22
2021/08/12 11:06:05;;;;;;;12.13;5.53;;;;;;;34.71;26.45;100256.44;5111129;28;20180;-23
2021/08/12 11:08:53;;;;;;;10.40;5.65;;;;;;;35.00;26.91;100265.06;5110861;28;20027;-22
2021/08/12 11:11:21;;;;;;;18.88;6.13;;;;;;;34.18;28.41;100287.00;5110863;28;20059;-23
2021/08/12 11:13:51;;;;;;;29.48;7.45;;;;;;;32.92;34.37;100289.59;5110558;28;20119;-23